Time;durP1;ratioP1;P1;durP2;ratioP2;P2;SDS_P1;SDS_P2;PMS_P1;PMS_P2;Temp;Humidity;BMP_temperature;BMP_pressure;BME280_temperature;BME280_humidity;BME280_pressure;Samples;Min_cycle;Max_cycle;Signal;HPM_P1;HPM_P2
2022/08/11 00:01:13;;;;;;;;;;;22.70;66.60;;;22.17;61.52;96538.28;4224443;33;20125;-86
2022/08/11 00:03:45;;;;;;;;;;;22.70;66.60;;;22.16;61.40;96543.06;4199548;33;19910;-87
2022/08/11 00:06:13;;;;;;;;;;;22.70;66.70;;;22.17;61.71;96532.69;4223204;33;19964;-86
2022/08/11 00:08:42;;;;;;;;;;;22.80;66.70;;;22.16;61.61;96531.06;4215582;33;19902;-88
2022/08/11 00:11:12;;;;;;;;;;;22.70;66.70;;;22.16;61.46;96536.63;4192324;33;19903;-88
2022/08/11 00:13:44;;;;;;;;;;;22.70;66.60;;;22.15;61.41;96535.00;4215133;33;19903;-87
2022/08/11 00:16:15;;;;;;;;;;;22.70;66.70;;;22.15;61.62;96535.00;4215400;33;20409;-88
2022/08/11 00:18:46;;;;;;;;;;;22.70;66.70;;;22.15;61.60;96535.00;4192329;33;19903;-88
2022/08/11 00:21:15;;;;;;;;;;;22.70;66.70;;;22.14;61.33;96538.97;4192287;33;19902;-87
2022/08/11 00:23:46;;;;;;;;;;;22.70;66.70;;;22.14;61.36;96536.19;4191744;33;19903;-87
2022/08/11 00:26:16;;;;;;;;;;;22.70;66.70;;;22.12;61.44;96530.94;4215497;33;19910;-87
2022/08/11 00:28:44;;;;;;;;;;;22.70;66.70;;;22.14;61.47;96533.41;4191784;33;19936;-89
2022/08/11 00:31:23;;;;;;;;;;;22.70;66.70;;;22.13;61.58;96538.13;4183958;33;19903;-88
2022/08/11 00:33:52;;;;;;;;;;;22.70;66.80;;;22.13;61.55;96531.75;4181520;33;19910;-86
2022/08/11 00:36:23;;;;;;;;;;;22.70;66.70;;;22.12;62.06;96532.91;4205016;33;19903;-87
2022/08/11 00:38:52;;;;;;;;;;;22.70;66.70;;;22.11;61.62;96534.88;4181930;33;20153;-86
2022/08/11 00:41:31;;;;;;;;;;;22.70;66.70;;;22.11;61.52;96539.66;4181684;33;19910;-87
2022/08/11 00:44:29;;;;;;;;;;;22.70;66.70;;;22.12;61.87;96538.50;4205088;33;19940;-88
2022/08/11 00:47:05;;;;;;;;;;;22.70;66.80;;;22.12;61.69;96535.69;4184313;33;19934;-88
2022/08/11 00:49:53;;;;;;;;;;;22.70;66.80;;;22.10;61.45;96538.81;4184374;33;19929;-88
2022/08/11 00:52:33;;;;;;;;;;;22.70;66.70;;;22.09;61.37;96539.16;4183870;33;20145;-88
2022/08/11 00:55:54;;;;;;;;;;;22.70;66.80;;;22.10;61.70;96540.78;4207235;33;19903;-88
2022/08/11 00:59:14;;;;;;;;;;;22.60;66.70;;;22.09;61.56;96548.31;4159430;33;20300;-88
2022/08/11 01:02:07;;;;;;;;;;;22.60;66.60;;;22.09;61.40;96548.31;4145155;33;20284;-88
2022/08/11 01:05:59;;;;;;;;;;;22.60;67.60;;;22.08;61.58;96546.69;4207248;33;19903;-88
2022/08/11 01:09:12;;;;;;;;;;;22.60;66.70;;;22.07;61.66;96547.88;4008555;34;19937;-87
2022/08/11 01:12:21;;;;;;;;;;;22.60;66.70;;;22.07;61.78;96548.69;4184014;33;20157;-88
2022/08/11 01:15:49;;;;;;;;;;;22.60;66.70;;;22.07;61.61;96540.31;4207111;33;20166;-88
2022/08/11 01:19:09;;;;;;;;;;;22.60;66.70;;;22.05;61.55;96537.03;4133038;34;19950;-88
2022/08/11 01:22:19;;;;;;;;;;;22.60;66.80;;;22.05;61.82;96539.03;4179283;34;20122;-88
2022/08/11 01:25:39;;;;;;;;;;;22.60;66.80;;;22.04;61.59;96543.75;4156506;34;19910;-88
2022/08/11 01:28:47;;;;;;;;;;;22.60;66.80;;;22.05;61.60;96542.63;4080355;34;20129;-88
2022/08/11 01:31:59;;;;;;;;;;;22.60;66.80;;;22.04;61.54;96532.63;4099543;34;20374;-88
2022/08/11 01:35:05;;;;;;;;;;;22.60;66.80;;;22.04;61.68;96534.59;4085501;34;19904;-89
2022/08/11 01:38:25;;;;;;;;;;;22.60;66.70;;;22.03;61.80;96521.81;4179749;34;20161;-89
2022/08/11 01:44:36;;;;;;;;;;;22.60;66.80;;;22.03;61.63;96524.59;4116450;34;19910;-89
2022/08/11 01:44:36;;;;;;;;;;;22.60;66.90;;;22.03;61.82;96514.25;4178583;34;20016;-88
2022/08/11 01:50:09;;;;;;;;;;;22.60;66.80;;;22.02;61.62;96509.81;4155126;34;20238;-88
2022/08/11 01:52:48;;;;;;;;;;;22.60;66.90;;;22.02;61.53;96514.59;4178545;34;19903;-88
2022/08/11 01:55:23;;;;;;;;;;;22.60;66.90;;;22.01;61.97;96510.97;4178811;34;20091;-89
2022/08/11 01:57:56;;;;;;;;;;;22.60;67.00;;;22.00;61.72;96512.16;4178921;34;20381;-88
2022/08/11 02:00:29;;;;;;;;;;;22.60;67.00;;;22.00;61.59;96514.13;4156147;34;19964;-88
2022/08/11 02:03:01;;;;;;;;;;;22.60;67.00;;;22.00;61.79;96512.16;4155728;34;20067;-88
2022/08/11 02:05:47;;;;;;;;;;;22.60;66.90;;;22.00;61.85;96514.94;4155862;34;19903;-88
2022/08/11 02:08:27;;;;;;;;;;;22.60;67.00;;;22.00;61.87;96511.34;4177880;34;20394;-88
2022/08/11 02:13:57;;;;;;;;;;;22.60;66.80;;;21.99;61.67;96513.31;4206226;33;19903;-87
2022/08/11 02:16:36;;;;;;;;;;;22.60;66.90;;;21.98;61.75;96514.47;4183291;33;19956;-88
2022/08/11 02:24:54;;;;;;;;;;;22.60;67.00;;;21.99;61.64;96509.69;4155947;34;20356;-87
2022/08/11 02:27:25;;;;;;;;;;;22.50;67.00;;;21.98;61.68;96513.63;4155420;34;19911;-86
2022/08/11 02:30:03;;;;;;;;;;;22.50;67.00;;;21.97;61.92;96507.25;4155769;34;19903;-88
2022/08/11 02:35:35;;;;;;;;;;;22.50;67.00;;;21.96;61.73;96504.78;4111703;34;20104;-88
2022/08/11 02:38:15;;;;;;;;;;;22.50;66.90;;;21.96;61.93;96513.97;4155567;34;20238;-88
2022/08/11 02:40:48;;;;;;;;;;;22.50;67.00;;;21.98;62.16;96510.84;4155629;34;19903;-86
2022/08/11 02:43:27;;;;;;;;;;;22.50;67.00;;;21.96;61.74;96504.78;4155029;34;19910;-86
2022/08/11 02:46:06;;;;;;;;;;;22.50;67.00;;;21.96;61.90;96504.78;4178034;34;20047;-86
2022/08/11 02:51:41;;;;;;;;;;;22.50;67.00;;;21.95;62.01;96511.50;4155068;34;19903;-86
2022/08/11 02:54:20;;;;;;;;;;;22.50;67.20;;;21.95;62.03;96514.31;4177854;34;20336;-87
2022/08/11 02:56:52;;;;;;;;;;;22.50;67.20;;;21.94;61.96;96507.94;4178024;34;19950;-86
2022/08/11 03:02:39;;;;;;;;;;;22.50;67.20;;;21.94;61.84;96507.94;4177837;34;19969;-86
2022/08/11 03:05:19;;;;;;;;;;;22.50;67.10;;;21.92;61.80;96508.28;4162559;33;19903;-86
2022/08/11 03:08:07;;;;;;;;;;;22.50;67.00;;;21.92;62.17;96504.66;4177592;34;20363;-87
2022/08/11 03:16:43;;;;;;;;;;;22.50;67.20;;;21.92;61.94;96510.22;4178661;34;20076;-87
2022/08/11 03:16:47;;;;;;;;;;;22.50;67.10;;;21.92;61.72;96504.66;4154660;34;19911;-87
2022/08/11 03:19:23;;;;;;;;;;;22.50;67.20;;;21.89;61.91;96508.09;4155006;34;20165;-87
2022/08/11 03:21:59;;;;;;;;;;;22.50;67.10;;;21.89;61.80;96513.69;4177682;34;19904;-87
2022/08/11 03:24:34;;;;;;;;;;;22.50;67.20;;;21.90;61.84;96516.16;4177676;34;19910;-88
2022/08/11 03:27:09;;;;;;;;;;;22.50;67.20;;;21.90;61.79;96512.53;4154680;34;20130;-87
2022/08/11 03:29:44;;;;;;;;;;;22.50;67.10;;;21.90;62.06;96518.09;4177773;34;19903;-86
2022/08/11 03:32:26;;;;;;;;;;;22.50;67.20;;;21.89;62.00;96516.47;4154428;34;20401;-86
2022/08/11 03:34:53;;;;;;;;;;;22.50;67.20;;;21.89;62.00;96517.31;4178435;34;19918;-87
2022/08/11 03:37:53;;;;;;;;;;;22.50;67.20;;;21.89;61.95;96516.47;4154582;34;20393;-87
2022/08/11 03:43:47;;;;;;;;;;;22.50;67.20;;;21.88;61.91;96515.66;4177270;34;20203;-87
2022/08/11 03:46:20;;;;;;;;;;;22.40;67.00;;;21.89;62.00;96513.69;4154603;34;20021;-87
2022/08/11 03:48:54;;;;;;;;;;;22.40;67.00;;;21.87;61.83;96513.22;4154600;34;20166;-87
2022/08/11 03:51:25;;;;;;;;;;;22.50;67.10;;;21.88;61.89;96514.88;4177462;34;20128;-87
2022/08/11 03:54:10;;;;;;;;;;;22.50;67.20;;;21.86;61.92;96515.19;4154297;34;19907;-87
2022/08/11 03:57:18;;;;;;;;;;;22.50;67.20;;;21.89;61.91;96510.91;4177235;34;19904;-87
2022/08/11 04:00:30;;;;;;;;;;;22.40;67.00;;;21.88;62.12;96509.28;4177291;34;19907;-87
2022/08/11 04:04:06;;;;;;;;;;;22.40;67.10;;;21.88;61.92;96509.28;4154192;34;20115;-87
2022/08/11 04:07:11;;;;;;;;;;;22.40;67.10;;;21.87;61.77;96511.25;4073388;34;19905;-87
2022/08/11 04:10:32;;;;;;;;;;;22.40;67.00;;;21.88;61.88;96512.88;4138324;34;20223;-87
2022/08/11 04:15:58;;;;;;;;;;;22.40;67.10;;;21.87;62.10;96508.47;4154000;34;20106;-87
2022/08/11 04:16:46;;;;;;;;;;;22.40;67.00;;;21.88;61.99;96510.09;4177126;34;19904;-87
2022/08/11 04:20:02;;;;;;;;;;;22.50;67.00;;;21.89;61.79;96510.91;4177952;34;20149;-87
2022/08/11 04:23:14;;;;;;;;;;;22.40;66.90;;;21.88;61.99;96514.88;4168080;33;19903;-87
2022/08/11 04:26:12;;;;;;;;;;;22.40;67.00;;;21.88;61.93;96510.09;4184282;33;20145;-87
2022/08/11 04:28:55;;;;;;;;;;;22.40;66.90;;;21.89;61.87;96505.31;4207304;33;19926;-87
2022/08/11 04:31:39;;;;;;;;;;;22.50;67.00;;;21.88;61.83;96506.50;4184162;33;19903;-87
2022/08/11 04:35:11;;;;;;;;;;;22.50;67.00;;;21.89;62.00;96510.91;4204140;33;19909;-87
2022/08/11 04:37:56;;;;;;;;;;;22.50;67.00;;;21.89;61.65;96508.09;4207020;33;19910;-86
2022/08/11 04:41:20;;;;;;;;;;;22.50;67.00;;;21.90;61.82;96504.16;4207466;33;19926;-86
2022/08/11 04:44:41;;;;;;;;;;;22.50;67.00;;;21.89;61.79;96497.78;4207144;33;19903;-86
2022/08/11 05:03:15;;;;;;;;;;;22.50;66.70;;;22.00;61.62;96511.34;4183791;33;19903;-86
2022/08/11 05:06:39;;;;;;;;;;;22.60;66.60;;;22.03;61.78;96508.69;4183787;33;19903;-86
2022/08/11 05:09:22;;;;;;;;;;;22.60;66.70;;;22.05;61.74;96509.16;4136410;34;19955;-86
2022/08/11 05:12:25;;;;;;;;;;;22.60;66.70;;;22.11;61.92;96506.19;4180194;34;20018;-86
2022/08/11 05:35:26;;;;;;;;;;;22.70;67.10;;;22.12;61.88;96493.88;4155951;34;19910;-86
2022/08/11 05:57:31;;;;;;;;;;;23.00;66.70;;;22.42;61.73;96491.03;4178620;34;20060;-86
2022/08/11 06:00:00;;;;;;;;;;;23.00;66.50;;;22.45;61.30;96484.78;4178660;34;19903;-86
2022/08/11 06:02:29;;;;;;;;;;;23.00;66.50;;;22.50;61.05;96490.16;4178422;34;20234;-86
2022/08/11 06:04:58;;;;;;;;;;;23.10;66.50;;;22.52;61.23;96485.06;4155803;34;19903;-86
2022/08/11 06:07:28;;;;;;;;;;;23.10;66.40;;;22.62;61.04;96487.44;4178504;34;20001;-87
2022/08/11 06:09:56;;;;;;;;;;;23.20;66.10;;;22.70;60.71;96493.25;4155586;34;20104;-87
2022/08/11 06:12:26;;;;;;;;;;;23.20;65.90;;;22.76;60.68;96489.91;4178276;34;20134;-86
2022/08/11 06:14:57;;;;;;;;;;;23.30;65.70;;;22.80;60.43;96492.81;4155593;34;19903;-85
2022/08/11 06:17:27;;;;;;;;;;;23.30;65.20;;;22.79;60.15;96485.59;4155488;34;19907;-86
2022/08/11 06:19:59;;;;;;;;;;;23.40;65.10;;;22.80;60.49;96481.66;4155453;34;19903;-86
2022/08/11 06:22:28;;;;;;;;;;;23.40;65.10;;;22.77;60.52;96485.97;4155337;34;19907;-86
2022/08/11 06:24:57;;;;;;;;;;;23.40;65.10;;;22.77;60.54;96485.97;4178353;34;20013;-87
2022/08/11 06:27:27;;;;;;;;;;;23.40;65.10;;;22.79;60.67;96493.97;4155472;34;19907;-86
2022/08/11 06:29:57;;;;;;;;;;;23.40;65.20;;;22.76;60.53;96486.31;4178280;34;19903;-86
2022/08/11 06:32:28;;;;;;;;;;;23.40;65.10;;;22.74;60.50;96495.00;4155222;34;19926;-86
2022/08/11 06:35:05;;;;;;;;;;;23.40;65.20;;;22.75;60.45;96496.66;4155289;34;19903;-86
2022/08/11 06:37:45;;;;;;;;;;;23.40;65.20;;;22.74;60.21;96499.78;4155092;34;20152;-86
2022/08/11 06:40:26;;;;;;;;;;;23.40;65.20;;;22.72;60.53;96494.53;4178189;34;20079;-86
2022/08/11 06:43:01;;;;;;;;;;;23.30;65.20;;;22.70;60.40;96501.63;4154411;34;20126;-86
2022/08/11 06:45:35;;;;;;;;;;;23.30;65.30;;;22.67;60.35;96498.38;4178230;34;20002;-86
2022/08/11 06:48:05;;;;;;;;;;;23.30;65.20;;;22.65;60.51;96500.69;4155058;34;19969;-86
2022/08/11 06:53:19;;;;;;;;;;;23.20;65.40;;;22.61;60.88;96498.91;4178704;34;20011;-88
2022/08/11 07:01:45;;;;;;;;;;;23.20;65.60;;;22.57;60.64;96501.56;4177863;34;20020;-85
2022/08/11 07:04:14;;;;;;;;;;;23.20;65.60;;;22.56;60.61;96494.38;4177543;34;20070;-86
2022/08/11 07:15:46;;;;;;;;;;;23.10;65.60;;;22.48;60.52;96498.84;4154801;34;20215;-86
2022/08/11 07:30:00;;;;;;;;;;;23.10;65.60;;;22.47;60.73;96502.00;4177468;34;20215;-85
2022/08/11 07:32:31;;;;;;;;;;;23.00;65.40;;;22.49;60.62;96499.69;4154163;34;19903;-85
2022/08/11 07:35:07;;;;;;;;;;;23.00;65.50;;;22.52;60.70;96499.81;4154577;34;19961;-85
2022/08/11 07:37:35;;;;;;;;;;;23.10;65.60;;;22.54;60.71;96505.03;4177284;34;19903;-85
2022/08/11 07:40:05;;;;;;;;;;;23.10;65.60;;;22.55;60.33;96503.09;4154493;34;20128;-85
2022/08/11 07:42:35;;;;;;;;;;;23.10;65.60;;;22.55;60.53;96503.88;4177063;34;19910;-85
2022/08/11 07:53:28;;;;;;;;;;;23.10;65.40;;;22.56;60.44;96502.72;4153834;34;19904;-86
2022/08/11 07:55:58;;;;;;;;;;;23.10;65.30;;;22.56;60.23;96499.94;4154416;34;19911;-87
2022/08/11 08:18:00;;;;;;;;;;;23.10;65.20;;;22.54;60.09;96485.50;4176898;34;20032;-85
2022/08/11 08:20:31;;;;;;;;;;;23.10;65.00;;;22.55;60.33;96489.94;4153988;34;20094;-85
2022/08/11 08:23:03;;;;;;;;;;;23.10;65.10;;;22.55;60.30;96487.16;4176506;34;19963;-85
2022/08/11 08:25:33;;;;;;;;;;;23.20;65.10;;;22.53;60.07;96487.50;4154050;34;19911;-85
2022/08/11 08:28:05;;;;;;;;;;;23.10;64.90;;;22.54;60.23;96488.31;4153898;34;19995;-85
2022/08/11 08:30:49;;;;;;;;;;;23.10;64.90;;;22.57;60.23;96484.84;4176818;34;19918;-85
2022/08/11 08:33:20;;;;;;;;;;;23.10;65.00;;;22.63;60.01;96482.66;4153648;34;20372;-85
2022/08/11 08:36:09;;;;;;;;;;;23.20;64.90;;;22.66;60.08;96476.38;4176822;34;19904;-85
2022/08/11 08:38:47;;;;;;;;;;;23.20;64.80;;;22.69;59.84;96478.50;4176636;34;19903;-85
2022/08/11 08:41:20;;;;;;;;;;;23.20;64.80;;;22.69;59.79;96475.72;4153818;34;20078;-86
2022/08/11 08:43:52;;;;;;;;;;;23.30;64.90;;;22.69;59.73;96475.72;4153474;34;19903;-86
2022/08/11 08:46:25;;;;;;;;;;;23.30;64.80;;;22.68;60.10;96474.88;4176724;34;19910;-86
2022/08/11 08:48:54;;;;;;;;;;;23.30;65.60;;;22.70;59.97;96476.50;4176732;34;19907;-86
2022/08/11 08:51:35;;;;;;;;;;;23.30;64.80;;;22.68;59.82;96471.28;4153595;34;19910;-86
2022/08/11 08:54:08;;;;;;;;;;;23.30;64.70;;;22.71;59.79;96469.78;4153388;34;19903;-85
2022/08/11 08:56:37;;;;;;;;;;;23.30;64.80;;;22.74;59.63;96471.88;4153742;34;20127;-86
2022/08/11 08:59:06;;;;;;;;;;;23.30;64.70;;;22.76;59.65;96475.16;4176585;34;20099;-85
2022/08/11 09:01:38;;;;;;;;;;;23.30;64.60;;;22.74;59.97;96472.69;4153654;34;20210;-86
2022/08/11 09:04:08;;;;;;;;;;;23.30;64.60;;;22.75;59.62;96474.31;4153338;34;20095;-85
2022/08/11 09:06:39;;;;;;;;;;;23.40;64.60;;;22.75;59.68;96468.75;4178590;34;20020;-85
2022/08/11 09:09:10;;;;;;;;;;;23.30;64.60;;;22.76;59.54;96475.16;4179013;34;20102;-85
2022/08/11 09:17:18;;;;;;;;;;;23.30;64.40;;;22.76;59.77;96464.00;4154670;34;19934;-86
2022/08/11 09:19:46;;;;;;;;;;;23.30;64.40;;;22.77;59.58;96465.63;4155938;34;19903;-86
2022/08/11 09:27:55;;;;;;;;;;;23.30;64.30;;;22.75;59.71;96460.38;4155785;34;20304;-86
2022/08/11 09:30:24;;;;;;;;;;;23.40;64.40;;;22.75;59.58;96462.34;4178715;34;20320;-86
2022/08/11 09:32:56;;;;;;;;;;;23.30;64.30;;;22.76;59.39;96461.19;4178257;34;19910;-86
2022/08/11 09:35:26;;;;;;;;;;;23.30;64.30;;;22.75;59.80;96457.56;4178702;34;19903;-86
2022/08/11 09:40:43;;;;;;;;;;;23.30;64.40;;;22.74;59.79;96455.13;4178783;34;19958;-86
2022/08/11 09:45:59;;;;;;;;;;;23.30;64.60;;;22.74;59.89;96460.72;4183099;33;19909;-86
2022/08/11 09:48:29;;;;;;;;;;;23.30;64.40;;;22.74;59.97;96460.72;4206250;33;20019;-85
2022/08/11 09:51:00;;;;;;;;;;;23.30;64.60;;;22.74;60.00;96455.13;4206235;33;20226;-85
2022/08/11 09:53:31;;;;;;;;;;;23.30;64.90;;;22.75;59.96;96453.97;4182610;33;19910;-85
2022/08/11 09:58:12;;;;;;;;;;;23.40;64.90;;;22.76;60.42;96452.81;4206279;33;19902;-86
2022/08/11 09:58:50;;;;;;;;;;;23.30;64.90;;;22.75;60.21;96440.84;4206043;33;20398;-86
2022/08/11 10:01:26;;;;;;;;;;;23.40;64.80;;;22.75;60.15;96446.41;4182884;33;19903;-85
2022/08/11 10:04:03;;;;;;;;;;;23.40;64.70;;;22.73;59.51;96439.56;4205703;33;20154;-85
2022/08/11 10:09:20;;;;;;;;;;;23.30;64.50;;;22.70;59.96;96441.06;4206109;33;20122;-84
2022/08/11 10:11:50;;;;;;;;;;;23.30;64.80;;;22.67;60.05;96445.34;4205964;33;19902;-85
2022/08/11 10:17:08;;;;;;;;;;;23.30;64.60;;;22.63;59.93;96438.00;4181922;33;19903;-85
2022/08/11 10:19:37;;;;;;;;;;;23.30;64.50;;;22.62;59.86;96441.94;4206004;33;20032;-85
2022/08/11 10:27:42;;;;;;;;;;;23.20;64.70;;;22.58;60.13;96429.88;4206754;33;20177;-85
2022/08/11 10:35:44;;;;;;;;;;;23.20;64.90;;;22.57;60.15;96428.22;4205895;33;20102;-85
2022/08/11 10:38:13;;;;;;;;;;;23.20;65.70;;;22.56;60.43;96438.56;4182310;33;19903;-85
2022/08/11 10:40:46;;;;;;;;;;;23.10;65.00;;;22.55;60.37;96431.34;4205684;33;19989;-85
2022/08/11 10:43:15;;;;;;;;;;;23.20;65.10;;;22.55;60.28;96431.34;4206163;33;19911;-85
2022/08/11 10:48:36;;;;;;;;;;;23.20;65.00;;;22.56;60.21;96432.97;4205474;33;19910;-85
2022/08/11 10:51:16;;;;;;;;;;;23.20;65.80;;;22.56;60.12;96427.41;4205716;33;19909;-85
2022/08/11 10:59:22;;;;;;;;;;;23.20;64.60;;;22.57;59.84;96415.09;4182318;33;19980;-85
2022/08/11 11:01:51;;;;;;;;;;;23.20;64.60;;;22.56;60.03;96424.59;4205614;33;19984;-86
2022/08/11 11:04:25;;;;;;;;;;;23.20;64.70;;;22.57;60.04;96417.88;4204999;33;19911;-85
2022/08/11 11:06:58;;;;;;;;;;;23.20;64.60;;;22.56;60.37;96427.41;4205523;33;19910;-85
2022/08/11 11:09:31;;;;;;;;;;;23.20;64.90;;;22.56;59.97;96415.44;4182178;33;20108;-85
2022/08/11 11:18:00;;;;;;;;;;;23.10;64.90;;;22.53;60.14;96412.16;4205356;33;19913;-85
2022/08/11 11:20:30;;;;;;;;;;;23.10;64.90;;;22.52;60.21;96404.97;4205229;33;20163;-84
2022/08/11 11:23:03;;;;;;;;;;;23.10;64.90;;;22.53;60.11;96405.75;4181524;33;19914;-84
2022/08/11 11:26:13;;;;;;;;;;;23.10;64.80;;;22.54;60.37;96410.19;4181926;33;19909;-85
2022/08/11 11:29:33;;;;;;;;;;;23.20;64.90;;;22.55;59.97;96403.44;4181593;33;19914;-84
2022/08/11 11:32:31;;;;;;;;;;;23.10;64.90;;;22.56;60.05;96405.09;4181818;33;20091;-86
2022/08/11 11:35:26;;;;;;;;;;;23.20;65.10;;;22.57;60.53;96400.34;4159613;33;19903;-85
2022/08/11 11:37:55;;;;;;;;;;;23.20;65.10;;;22.57;60.16;96401.13;4181672;33;20122;-85
2022/08/11 11:40:24;;;;;;;;;;;23.20;64.90;;;22.57;60.20;96406.72;4205086;33;20144;-85
2022/08/11 11:42:54;;;;;;;;;;;23.20;64.70;;;22.57;60.08;96401.13;4205448;33;20256;-85
2022/08/11 11:45:24;;;;;;;;;;;23.20;64.90;;;22.57;60.03;96395.56;4205114;33;20244;-85
2022/08/11 11:47:57;;;;;;;;;;;23.20;65.00;;;22.57;59.92;96391.97;4204894;33;20153;-85
2022/08/11 11:50:27;;;;;;;;;;;23.20;64.80;;;22.56;60.29;96387.53;4205101;33;20101;-85
2022/08/11 11:52:56;;;;;;;;;;;23.20;64.60;;;22.54;59.95;96393.44;4204405;33;19983;-86
2022/08/11 11:55:25;;;;;;;;;;;23.20;64.80;;;22.54;59.99;96390.66;4205062;33;19954;-85
2022/08/11 12:03:27;;;;;;;;;;;23.20;64.80;;;22.54;59.82;96376.72;4204470;33;20118;-86
2022/08/11 12:05:55;;;;;;;;;;;23.10;64.80;;;22.54;60.21;96376.72;4204874;33;20468;-85
2022/08/11 12:08:24;;;;;;;;;;;23.10;64.80;;;22.53;60.33;96378.69;4205660;33;20477;-86
2022/08/11 12:13:39;;;;;;;;;;;23.10;64.90;;;22.53;60.42;96378.69;4181649;33;19910;-85
2022/08/11 12:13:44;;;;;;;;;;;23.20;65.10;;;22.54;60.30;96371.13;4181051;33;19902;-86
2022/08/11 12:16:15;;;;;;;;;;;23.10;64.80;;;22.54;59.82;96368.34;4181636;33;20098;-85
2022/08/11 12:18:47;;;;;;;;;;;23.10;64.70;;;22.53;60.24;96372.28;4181573;33;19902;-85
2022/08/11 12:21:16;;;;;;;;;;;23.10;64.80;;;22.52;60.10;96368.69;4204680;33;19910;-86
2022/08/11 12:29:19;;;;;;;;;;;23.10;64.90;;;22.51;60.03;96366.25;4205557;33;20121;-86
2022/08/11 12:31:48;;;;;;;;;;;23.10;64.90;;;22.52;60.36;96362.31;4204583;33;20159;-86
2022/08/11 12:34:18;;;;;;;;;;;23.10;65.00;;;22.52;59.89;96365.09;4205078;33;20075;-85
2022/08/11 12:36:50;;;;;;;;;;;23.10;64.80;;;22.52;60.11;96359.53;4176749;34;20214;-86
2022/08/11 12:45:26;;;;;;;;;;;23.10;64.80;;;22.51;59.96;96364.28;4176639;34;19903;-85
2022/08/11 12:53:14;;;;;;;;;;;23.10;64.80;;;22.52;59.68;96362.31;4183014;33;20226;-85
2022/08/11 12:58:28;;;;;;;;;;;23.10;64.40;;;22.52;59.47;96356.72;4207751;33;19921;-85
2022/08/11 13:06:30;;;;;;;;;;;23.10;64.50;;;22.52;60.01;96359.53;4183743;33;19985;-85
2022/08/11 13:08:58;;;;;;;;;;;23.10;64.40;;;22.51;59.79;96355.09;4206643;33;20233;-85
2022/08/11 13:14:13;;;;;;;;;;;23.10;64.20;;;22.51;59.66;96346.72;4183055;33;19985;-85
2022/08/11 13:19:24;;;;;;;;;;;23.10;64.40;;;22.50;59.57;96339.53;4182311;33;20210;-85
2022/08/11 13:21:54;;;;;;;;;;;23.10;64.40;;;22.50;59.62;96333.94;4206667;33;19907;-86
2022/08/11 13:24:22;;;;;;;;;;;23.10;64.30;;;22.49;59.19;96332.31;4206027;33;19926;-85
2022/08/11 13:26:51;;;;;;;;;;;23.10;64.00;;;22.48;59.17;96330.66;4207561;33;20253;-85
2022/08/11 13:29:20;;;;;;;;;;;23.10;64.20;;;22.48;59.28;96336.25;4207401;33;20150;-86
2022/08/11 13:31:49;;;;;;;;;;;23.10;64.10;;;22.48;59.68;96336.25;4183455;33;19903;-85
2022/08/11 13:34:18;;;;;;;;;;;23.10;64.30;;;22.47;59.44;96327.06;4206912;33;19903;-85
2022/08/11 13:36:47;;;;;;;;;;;23.10;64.40;;;22.48;59.80;96331.47;4183423;33;19947;-86
2022/08/11 13:39:17;;;;;;;;;;;23.10;64.40;;;22.48;59.83;96327.88;4182958;33;20074;-85
2022/08/11 13:41:46;;;;;;;;;;;23.10;64.40;;;22.46;59.99;96321.84;4206350;33;19946;-86
2022/08/11 13:44:17;;;;;;;;;;;23.10;64.40;;;22.47;59.91;96323.47;4182714;33;19910;-86
2022/08/11 13:46:45;;;;;;;;;;;23.10;64.60;;;22.46;59.78;96327.41;4183190;33;20134;-86
2022/08/11 13:49:16;;;;;;;;;;;23.10;64.70;;;22.45;59.78;96320.19;4206273;33;19902;-86
2022/08/11 13:51:44;;;;;;;;;;;23.10;64.60;;;22.45;59.63;96328.56;4182946;33;20081;-86
2022/08/11 13:54:22;;;;;;;;;;;23.00;64.60;;;22.44;60.08;96330.56;4205788;33;20057;-85
2022/08/11 13:56:53;;;;;;;;;;;23.00;64.40;;;22.43;59.73;96328.91;4183136;33;20130;-86
2022/08/11 13:59:22;;;;;;;;;;;23.00;64.30;;;22.44;59.92;96324.16;4206160;33;20381;-85
2022/08/11 14:01:54;;;;;;;;;;;23.00;64.40;;;22.42;59.75;96324.50;4206227;33;19929;-85
2022/08/11 14:04:28;;;;;;;;;;;23.00;64.50;;;22.43;59.85;96325.31;4205643;33;20055;-85
2022/08/11 14:06:59;;;;;;;;;;;23.00;64.30;;;22.41;59.39;96324.78;4206215;33;20268;-86
2022/08/11 14:09:36;;;;;;;;;;;23.00;64.40;;;22.41;59.84;96330.38;4206954;33;19910;-86
2022/08/11 14:14:59;;;;;;;;;;;23.00;64.60;;;22.42;59.93;96326.47;4182828;33;19909;-86
2022/08/11 14:17:29;;;;;;;;;;;23.00;64.60;;;22.41;60.16;96327.59;4206091;33;20102;-86
2022/08/11 14:19:58;;;;;;;;;;;23.00;64.80;;;22.38;60.13;96324.34;4182762;33;20079;-86
2022/08/11 14:22:25;;;;;;;;;;;23.00;64.60;;;22.40;59.76;96324.00;4182187;33;20165;-86
2022/08/11 14:24:55;;;;;;;;;;;23.00;64.60;;;22.41;59.86;96322.00;4205882;33;20146;-86
2022/08/11 14:27:29;;;;;;;;;;;23.00;64.50;;;22.40;60.14;96326.00;4205775;33;19903;-85
2022/08/11 14:29:58;;;;;;;;;;;23.00;64.60;;;22.38;59.75;96324.34;4205861;33;19903;-86
2022/08/11 14:32:27;;;;;;;;;;;23.00;64.50;;;22.40;59.66;96312.03;4182417;33;20089;-85
2022/08/11 14:34:55;;;;;;;;;;;23.00;64.40;;;22.40;59.66;96312.03;4205746;33;19909;-85
2022/08/11 14:37:26;;;;;;;;;;;23.00;64.50;;;22.38;60.13;96307.63;4182516;33;19903;-86
2022/08/11 14:39:58;;;;;;;;;;;23.00;64.60;;;22.38;59.72;96304.81;4182450;33;19907;-86
2022/08/11 14:48:01;;;;;;;;;;;23.00;64.40;;;22.38;59.43;96307.63;4205684;33;19903;-85
2022/08/11 14:50:32;;;;;;;;;;;23.00;64.30;;;22.37;59.52;96306.00;4182441;33;19910;-86
2022/08/11 14:53:04;;;;;;;;;;;23.00;64.40;;;22.37;59.74;96308.78;4205249;33;19910;-85
2022/08/11 14:58:26;;;;;;;;;;;23.00;64.30;;;22.36;59.68;96312.72;4154748;34;20478;-86
2022/08/11 15:00:55;;;;;;;;;;;23.00;64.30;;;22.37;59.50;96300.41;4154851;34;19903;-86
2022/08/11 15:03:24;;;;;;;;;;;23.00;64.30;;;22.36;59.54;96309.94;4153856;34;19904;-85
2022/08/11 15:05:55;;;;;;;;;;;23.00;64.30;;;22.34;59.18;96309.47;4177686;34;19910;-86
2022/08/11 15:08:53;;;;;;;;;;;23.00;64.20;;;22.36;59.54;96307.16;4177586;34;20080;-86
2022/08/11 15:14:05;;;;;;;;;;;23.00;64.30;;;22.36;59.53;96307.16;4154081;34;20051;-87
2022/08/11 15:19:20;;;;;;;;;;;23.00;64.00;;;22.36;59.48;96300.72;4154661;34;19910;-86
2022/08/11 15:24:35;;;;;;;;;;;23.00;64.20;;;22.36;59.47;96301.56;4154577;34;20215;-85
2022/08/11 15:38:12;;;;;;;;;;;22.90;64.00;;;22.34;59.34;96289.09;4154286;34;19942;-85
2022/08/11 15:46:20;;;;;;;;;;;22.90;64.20;;;22.33;59.39;96285.50;4154330;34;20421;-86
2022/08/11 15:48:52;;;;;;;;;;;22.90;64.10;;;22.32;59.66;96289.47;4154309;34;19903;-86
2022/08/11 15:51:27;;;;;;;;;;;22.90;64.30;;;22.32;59.62;96289.47;4154216;34;19903;-85
2022/08/11 15:53:58;;;;;;;;;;;22.90;64.20;;;22.31;59.67;96285.03;4177699;34;19982;-86
2022/08/11 15:56:28;;;;;;;;;;;22.90;64.20;;;22.33;59.32;96295.88;4154204;34;20468;-86
2022/08/11 16:04:31;;;;;;;;;;;22.90;64.20;;;22.30;59.43;96297.34;4154465;34;19903;-86
2022/08/11 16:07:01;;;;;;;;;;;22.90;64.20;;;22.31;59.64;96298.97;4154031;34;20501;-86
2022/08/11 16:09:33;;;;;;;;;;;22.90;64.50;;;22.30;59.73;96294.56;4177064;34;19992;-86
2022/08/11 16:12:04;;;;;;;;;;;22.90;64.50;;;22.29;59.77;96295.72;4153733;34;20237;-86
2022/08/11 16:17:24;;;;;;;;;;;22.90;64.60;;;22.28;59.79;96291.31;4179422;34;19903;-86
2022/08/11 16:19:54;;;;;;;;;;;22.90;64.60;;;22.27;59.62;96292.47;4180416;34;19903;-87
2022/08/11 16:22:33;;;;;;;;;;;22.90;64.60;;;22.25;59.66;96292.00;4156039;34;19907;-87
2022/08/11 16:25:02;;;;;;;;;;;22.90;64.70;;;22.27;59.65;96295.25;4179517;34;19910;-86
2022/08/11 16:27:33;;;;;;;;;;;22.90;64.70;;;22.26;59.48;96296.44;4156450;34;20130;-86
2022/08/11 16:30:04;;;;;;;;;;;22.80;64.50;;;22.25;59.75;96296.75;4180320;34;19926;-86
2022/08/11 16:32:33;;;;;;;;;;;22.80;64.30;;;22.25;59.88;96292.00;4179087;34;20378;-85
2022/08/11 16:40:35;;;;;;;;;;;22.80;64.40;;;22.22;59.64;96295.47;4156620;34;20051;-85